sensor_id;sensor_type;location;lat;lon;timestamp;temperature;humidity
40848;DHT22;26570;50.962;5.340;2023-06-22T00:05:08;21.40;99.90
40848;DHT22;26570;50.962;5.340;2023-06-22T00:08:20;21.40;99.90
40848;DHT22;26570;50.962;5.340;2023-06-22T00:11:11;21.40;99.90
40848;DHT22;26570;50.962;5.340;2023-06-22T00:14:01;21.10;99.90
40848;DHT22;26570;50.962;5.340;2023-06-22T00:16:50;21.20;99.90
40848;DHT22;26570;50.962;5.340;2023-06-22T00:19:56;21.00;99.90
40848;DHT22;26570;50.962;5.340;2023-06-22T00:22:47;21.00;99.90
40848;DHT22;26570;50.962;5.340;2023-06-22T00:26:08;21.00;99.90
40848;DHT22;26570;50.962;5.340;2023-06-22T00:29:06;21.00;99.90
40848;DHT22;26570;50.962;5.340;2023-06-22T00:31:55;21.00;99.90
40848;DHT22;26570;50.962;5.340;2023-06-22T00:34:43;21.00;99.90
40848;DHT22;26570;50.962;5.340;2023-06-22T00:37:32;20.90;99.90
40848;DHT22;26570;50.962;5.340;2023-06-22T00:40:28;20.80;99.90
40848;DHT22;26570;50.962;5.340;2023-06-22T00:43:49;20.80;99.90
40848;DHT22;26570;50.962;5.340;2023-06-22T00:46:38;20.90;99.90
40848;DHT22;26570;50.962;5.340;2023-06-22T00:49:33;20.80;99.90
40848;DHT22;26570;50.962;5.340;2023-06-22T00:52:25;20.80;99.90
40848;DHT22;26570;50.962;5.340;2023-06-22T00:55:19;20.80;99.90
40848;DHT22;26570;50.962;5.340;2023-06-22T00:58:22;20.80;99.90
40848;DHT22;26570;50.962;5.340;2023-06-22T01:01:18;20.90;99.90
40848;DHT22;26570;50.962;5.340;2023-06-22T01:04:15;20.80;99.90
40848;DHT22;26570;50.962;5.340;2023-06-22T01:07:31;20.70;99.90
40848;DHT22;26570;50.962;5.340;2023-06-22T01:11:10;20.80;99.90
40848;DHT22;26570;50.962;5.340;2023-06-22T01:17:29;21.00;99.90
40848;DHT22;26570;50.962;5.340;2023-06-22T01:20:34;20.80;99.90
40848;DHT22;26570;50.962;5.340;2023-06-22T01:29:59;20.90;99.90
40848;DHT22;26570;50.962;5.340;2023-06-22T01:32:59;21.00;99.90
40848;DHT22;26570;50.962;5.340;2023-06-22T01:35:55;21.10;99.90
40848;DHT22;26570;50.962;5.340;2023-06-22T01:38:42;21.10;99.90
40848;DHT22;26570;50.962;5.340;2023-06-22T01:41:32;21.10;99.90
40848;DHT22;26570;50.962;5.340;2023-06-22T01:44:28;21.20;99.90
40848;DHT22;26570;50.962;5.340;2023-06-22T01:47:19;21.00;99.90
40848;DHT22;26570;50.962;5.340;2023-06-22T01:50:23;21.20;99.90
40848;DHT22;26570;50.962;5.340;2023-06-22T01:53:26;21.10;99.90
40848;DHT22;26570;50.962;5.340;2023-06-22T01:56:26;21.10;99.90
40848;DHT22;26570;50.962;5.340;2023-06-22T02:00:03;21.10;99.90
40848;DHT22;26570;50.962;5.340;2023-06-22T02:03:26;21.10;99.90
40848;DHT22;26570;50.962;5.340;2023-06-22T02:06:43;21.10;99.90
40848;DHT22;26570;50.962;5.340;2023-06-22T02:10:07;20.90;99.90
40848;DHT22;26570;50.962;5.340;2023-06-22T02:13:15;21.10;99.90
40848;DHT22;26570;50.962;5.340;2023-06-22T02:16:27;20.90;99.90
40848;DHT22;26570;50.962;5.340;2023-06-22T02:19:16;21.00;99.90
40848;DHT22;26570;50.962;5.340;2023-06-22T02:22:14;21.00;99.90
40848;DHT22;26570;50.962;5.340;2023-06-22T02:28:12;21.10;99.90
40848;DHT22;26570;50.962;5.340;2023-06-22T02:31:11;21.00;99.90
40848;DHT22;26570;50.962;5.340;2023-06-22T02:34:07;21.10;99.90
40848;DHT22;26570;50.962;5.340;2023-06-22T02:37:30;21.10;99.90
40848;DHT22;26570;50.962;5.340;2023-06-22T02:40:39;21.00;99.90
40848;DHT22;26570;50.962;5.340;2023-06-22T02:43:30;21.00;99.90
40848;DHT22;26570;50.962;5.340;2023-06-22T02:46:58;21.10;99.90
40848;DHT22;26570;50.962;5.340;2023-06-22T02:49:57;21.00;99.90
40848;DHT22;26570;50.962;5.340;2023-06-22T02:53:28;20.80;99.90
40848;DHT22;26570;50.962;5.340;2023-06-22T02:56:21;21.00;99.90
40848;DHT22;26570;50.962;5.340;2023-06-22T02:59:54;20.90;99.90
40848;DHT22;26570;50.962;5.340;2023-06-22T03:02:49;20.90;99.90
40848;DHT22;26570;50.962;5.340;2023-06-22T03:06:10;20.70;99.90
40848;DHT22;26570;50.962;5.340;2023-06-22T03:13:19;20.50;99.90
40848;DHT22;26570;50.962;5.340;2023-06-22T03:16:37;20.40;99.90
40848;DHT22;26570;50.962;5.340;2023-06-22T03:19:50;20.30;99.90
40848;DHT22;26570;50.962;5.340;2023-06-22T03:22:46;20.50;99.90
40848;DHT22;26570;50.962;5.340;2023-06-22T03:26:08;20.30;99.90
40848;DHT22;26570;50.962;5.340;2023-06-22T03:29:02;20.40;99.90
40848;DHT22;26570;50.962;5.340;2023-06-22T03:32:24;20.00;99.90
40848;DHT22;26570;50.962;5.340;2023-06-22T03:35:53;20.00;99.90
40848;DHT22;26570;50.962;5.340;2023-06-22T03:39:16;20.20;99.90
40848;DHT22;26570;50.962;5.340;2023-06-22T03:42:55;20.30;99.90
40848;DHT22;26570;50.962;5.340;2023-06-22T03:46:17;20.40;99.90
40848;DHT22;26570;50.962;5.340;2023-06-22T03:50:01;20.40;99.90
40848;DHT22;26570;50.962;5.340;2023-06-22T03:53:08;20.40;99.90
40848;DHT22;26570;50.962;5.340;2023-06-22T03:56:29;20.30;99.90
40848;DHT22;26570;50.962;5.340;2023-06-22T03:59:28;20.50;99.90
40848;DHT22;26570;50.962;5.340;2023-06-22T04:02:22;20.40;99.90
40848;DHT22;26570;50.962;5.340;2023-06-22T04:05:20;20.60;99.90
40848;DHT22;26570;50.962;5.340;2023-06-22T04:08:40;20.60;99.90
40848;DHT22;26570;50.962;5.340;2023-06-22T04:12:05;20.60;99.90
40848;DHT22;26570;50.962;5.340;2023-06-22T04:15:17;20.60;99.90
40848;DHT22;26570;50.962;5.340;2023-06-22T04:18:34;20.60;99.90
40848;DHT22;26570;50.962;5.340;2023-06-22T04:21:57;20.80;99.90
40848;DHT22;26570;50.962;5.340;2023-06-22T04:25:15;20.80;99.90
40848;DHT22;26570;50.962;5.340;2023-06-22T04:28:42;20.80;99.90
40848;DHT22;26570;50.962;5.340;2023-06-22T04:31:47;21.10;99.90
40848;DHT22;26570;50.962;5.340;2023-06-22T04:35:16;21.10;99.90
40848;DHT22;26570;50.962;5.340;2023-06-22T04:38:03;20.90;99.90
40848;DHT22;26570;50.962;5.340;2023-06-22T04:40:50;21.10;99.90
40848;DHT22;26570;50.962;5.340;2023-06-22T04:44:19;21.20;99.90
40848;DHT22;26570;50.962;5.340;2023-06-22T04:47:34;21.20;99.90
40848;DHT22;26570;50.962;5.340;2023-06-22T04:50:50;21.30;99.90
40848;DHT22;26570;50.962;5.340;2023-06-22T04:54:07;21.20;99.90
40848;DHT22;26570;50.962;5.340;2023-06-22T04:57:10;21.30;99.90
40848;DHT22;26570;50.962;5.340;2023-06-22T04:59:57;21.10;99.90
40848;DHT22;26570;50.962;5.340;2023-06-22T05:02:49;21.10;99.90
40848;DHT22;26570;50.962;5.340;2023-06-22T05:08:59;21.20;99.90
40848;DHT22;26570;50.962;5.340;2023-06-22T05:15:48;20.80;99.90
40848;DHT22;26570;50.962;5.340;2023-06-22T05:18:57;20.90;99.90
40848;DHT22;26570;50.962;5.340;2023-06-22T05:22:15;21.20;99.90
40848;DHT22;26570;50.962;5.340;2023-06-22T05:25:30;21.00;99.90
40848;DHT22;26570;50.962;5.340;2023-06-22T05:28:42;21.10;99.90
40848;DHT22;26570;50.962;5.340;2023-06-22T05:32:53;21.00;99.90
40848;DHT22;26570;50.962;5.340;2023-06-22T05:36:15;20.90;99.90
40848;DHT22;26570;50.962;5.340;2023-06-22T05:39:36;20.70;99.90
40848;DHT22;26570;50.962;5.340;2023-06-22T05:43:06;21.00;99.90
40848;DHT22;26570;50.962;5.340;2023-06-22T05:46:22;20.70;99.90
40848;DHT22;26570;50.962;5.340;2023-06-22T05:49:15;20.80;99.90
40848;DHT22;26570;50.962;5.340;2023-06-22T05:56:22;20.80;99.90
40848;DHT22;26570;50.962;5.340;2023-06-22T05:59:30;20.80;99.90
40848;DHT22;26570;50.962;5.340;2023-06-22T06:02:38;20.80;99.90
40848;DHT22;26570;50.962;5.340;2023-06-22T06:06:13;20.80;99.90
40848;DHT22;26570;50.962;5.340;2023-06-22T06:09:13;20.90;99.90
40848;DHT22;26570;50.962;5.340;2023-06-22T06:12:45;21.00;99.90
40848;DHT22;26570;50.962;5.340;2023-06-22T06:15:55;21.10;99.90
40848;DHT22;26570;50.962;5.340;2023-06-22T06:19:06;21.10;99.90
40848;DHT22;26570;50.962;5.340;2023-06-22T06:22:36;20.90;99.90
40848;DHT22;26570;50.962;5.340;2023-06-22T06:25:28;21.20;99.90
40848;DHT22;26570;50.962;5.340;2023-06-22T06:28:31;21.30;99.90
40848;DHT22;26570;50.962;5.340;2023-06-22T06:31:42;21.30;99.90
40848;DHT22;26570;50.962;5.340;2023-06-22T06:35:06;21.30;99.90
40848;DHT22;26570;50.962;5.340;2023-06-22T06:38:45;21.30;99.90
40848;DHT22;26570;50.962;5.340;2023-06-22T06:42:19;21.20;99.90
40848;DHT22;26570;50.962;5.340;2023-06-22T06:45:35;21.30;99.90
40848;DHT22;26570;50.962;5.340;2023-06-22T06:48:47;21.40;99.90
40848;DHT22;26570;50.962;5.340;2023-06-22T06:52:09;21.40;99.90
40848;DHT22;26570;50.962;5.340;2023-06-22T06:55:20;21.40;99.90
40848;DHT22;26570;50.962;5.340;2023-06-22T06:58:19;21.50;99.90
40848;DHT22;26570;50.962;5.340;2023-06-22T07:01:30;21.70;99.90
40848;DHT22;26570;50.962;5.340;2023-06-22T07:04:23;21.80;99.90
40848;DHT22;26570;50.962;5.340;2023-06-22T07:07:34;22.00;99.90
40848;DHT22;26570;50.962;5.340;2023-06-22T07:10:34;22.20;99.90
40848;DHT22;26570;50.962;5.340;2023-06-22T07:13:25;22.50;99.90
40848;DHT22;26570;50.962;5.340;2023-06-22T07:16:25;23.00;99.90
40848;DHT22;26570;50.962;5.340;2023-06-22T07:19:27;23.40;99.90
40848;DHT22;26570;50.962;5.340;2023-06-22T07:22:26;23.80;99.90
40848;DHT22;26570;50.962;5.340;2023-06-22T07:25:23;24.20;99.90
40848;DHT22;26570;50.962;5.340;2023-06-22T07:28:18;24.40;99.90
40848;DHT22;26570;50.962;5.340;2023-06-22T07:31:37;24.40;99.90
40848;DHT22;26570;50.962;5.340;2023-06-22T07:38:26;24.30;99.90
40848;DHT22;26570;50.962;5.340;2023-06-22T07:41:13;24.30;99.90
40848;DHT22;26570;50.962;5.340;2023-06-22T07:44:13;24.10;99.90
40848;DHT22;26570;50.962;5.340;2023-06-22T07:47:37;23.90;99.90
40848;DHT22;26570;50.962;5.340;2023-06-22T07:51:05;24.10;99.90
40848;DHT22;26570;50.962;5.340;2023-06-22T07:54:39;24.00;99.90
40848;DHT22;26570;50.962;5.340;2023-06-22T07:57:31;23.90;99.90
40848;DHT22;26570;50.962;5.340;2023-06-22T08:01:02;23.80;99.90
40848;DHT22;26570;50.962;5.340;2023-06-22T08:03:59;23.80;99.90
40848;DHT22;26570;50.962;5.340;2023-06-22T08:06:56;24.00;99.90
40848;DHT22;26570;50.962;5.340;2023-06-22T08:09:51;24.00;99.90
40848;DHT22;26570;50.962;5.340;2023-06-22T08:13:15;24.20;99.90
40848;DHT22;26570;50.962;5.340;2023-06-22T08:16:34;24.60;99.90
40848;DHT22;26570;50.962;5.340;2023-06-22T08:19:34;24.80;99.90
40848;DHT22;26570;50.962;5.340;2023-06-22T08:23:13;25.00;99.90
40848;DHT22;26570;50.962;5.340;2023-06-22T08:26:32;25.10;99.90
40848;DHT22;26570;50.962;5.340;2023-06-22T08:29:32;25.40;99.90
40848;DHT22;26570;50.962;5.340;2023-06-22T08:32:23;24.90;99.90
40848;DHT22;26570;50.962;5.340;2023-06-22T08:35:43;25.10;99.90
40848;DHT22;26570;50.962;5.340;2023-06-22T08:38:34;25.10;99.90
40848;DHT22;26570;50.962;5.340;2023-06-22T08:41:22;25.40;99.90
40848;DHT22;26570;50.962;5.340;2023-06-22T08:44:21;25.20;99.90
40848;DHT22;26570;50.962;5.340;2023-06-22T08:47:38;25.60;99.90
40848;DHT22;26570;50.962;5.340;2023-06-22T08:50:54;25.80;99.90
40848;DHT22;26570;50.962;5.340;2023-06-22T08:53:46;25.80;99.90
40848;DHT22;26570;50.962;5.340;2023-06-22T08:57:28;26.20;99.90
40848;DHT22;26570;50.962;5.340;2023-06-22T09:00:43;26.00;99.90
40848;DHT22;26570;50.962;5.340;2023-06-22T09:03:31;25.80;99.90
40848;DHT22;26570;50.962;5.340;2023-06-22T09:06:32;25.60;99.90
40848;DHT22;26570;50.962;5.340;2023-06-22T09:10:00;25.80;99.90
40848;DHT22;26570;50.962;5.340;2023-06-22T09:12:51;25.80;99.90
40848;DHT22;26570;50.962;5.340;2023-06-22T09:16:11;25.60;99.90
40848;DHT22;26570;50.962;5.340;2023-06-22T09:19:34;25.60;99.90
40848;DHT22;26570;50.962;5.340;2023-06-22T09:22:43;25.40;99.90
40848;DHT22;26570;50.962;5.340;2023-06-22T09:26:02;25.50;99.90
40848;DHT22;26570;50.962;5.340;2023-06-22T09:29:38;25.60;99.90
40848;DHT22;26570;50.962;5.340;2023-06-22T09:32:27;25.60;99.90
40848;DHT22;26570;50.962;5.340;2023-06-22T09:35:45;25.60;99.90
40848;DHT22;26570;50.962;5.340;2023-06-22T09:39:08;25.40;99.90
40848;DHT22;26570;50.962;5.340;2023-06-22T09:49:48;25.30;99.90
40848;DHT22;26570;50.962;5.340;2023-06-22T09:52:39;25.20;99.90
40848;DHT22;26570;50.962;5.340;2023-06-22T09:55:53;25.40;99.90
40848;DHT22;26570;50.962;5.340;2023-06-22T10:15:08;25.30;99.90
40848;DHT22;26570;50.962;5.340;2023-06-22T10:18:44;25.20;99.90
40848;DHT22;26570;50.962;5.340;2023-06-22T10:22:39;25.00;99.90
40848;DHT22;26570;50.962;5.340;2023-06-22T10:29:47;25.10;99.90
40848;DHT22;26570;50.962;5.340;2023-06-22T10:37:27;24.60;99.90
40848;DHT22;26570;50.962;5.340;2023-06-22T10:41:10;24.10;99.90
40848;DHT22;26570;50.962;5.340;2023-06-22T10:48:33;23.80;99.90
40848;DHT22;26570;50.962;5.340;2023-06-22T10:52:17;23.70;99.90
40848;DHT22;26570;50.962;5.340;2023-06-22T11:03:19;23.40;99.90
40848;DHT22;26570;50.962;5.340;2023-06-22T11:06:57;23.40;99.90
40848;DHT22;26570;50.962;5.340;2023-06-22T11:10:25;23.80;99.90
40848;DHT22;26570;50.962;5.340;2023-06-22T11:13:39;23.70;99.90
40848;DHT22;26570;50.962;5.340;2023-06-22T11:20:48;23.60;99.90
40848;DHT22;26570;50.962;5.340;2023-06-22T11:23:48;23.40;99.90
40848;DHT22;26570;50.962;5.340;2023-06-22T11:27:17;23.40;99.90
40848;DHT22;26570;50.962;5.340;2023-06-22T11:30:50;23.30;99.90
40848;DHT22;26570;50.962;5.340;2023-06-22T11:34:20;23.30;99.90
40848;DHT22;26570;50.962;5.340;2023-06-22T11:37:50;23.80;99.90
40848;DHT22;26570;50.962;5.340;2023-06-22T11:41:03;23.80;99.90
40848;DHT22;26570;50.962;5.340;2023-06-22T11:44:11;24.20;99.90
40848;DHT22;26570;50.962;5.340;2023-06-22T11:47:24;23.90;99.90
40848;DHT22;26570;50.962;5.340;2023-06-22T11:50:54;24.10;99.90
40848;DHT22;26570;50.962;5.340;2023-06-22T11:54:29;23.50;99.90
40848;DHT22;26570;50.962;5.340;2023-06-22T11:57:38;23.30;99.90
40848;DHT22;26570;50.962;5.340;2023-06-22T12:04:13;22.70;99.90
40848;DHT22;26570;50.962;5.340;2023-06-22T12:07:37;22.80;99.90
40848;DHT22;26570;50.962;5.340;2023-06-22T12:10:27;22.70;99.90
40848;DHT22;26570;50.962;5.340;2023-06-22T12:13:24;22.30;99.90
40848;DHT22;26570;50.962;5.340;2023-06-22T12:16:17;22.30;99.90
40848;DHT22;26570;50.962;5.340;2023-06-22T12:19:44;21.80;99.90
40848;DHT22;26570;50.962;5.340;2023-06-22T12:22:46;21.90;99.90
40848;DHT22;26570;50.962;5.340;2023-06-22T12:26:01;21.80;99.90
40848;DHT22;26570;50.962;5.340;2023-06-22T12:29:22;21.80;99.90
40848;DHT22;26570;50.962;5.340;2023-06-22T12:32:27;21.80;99.90
40848;DHT22;26570;50.962;5.340;2023-06-22T12:35:42;21.70;99.90
40848;DHT22;26570;50.962;5.340;2023-06-22T12:38:55;21.50;99.90
40848;DHT22;26570;50.962;5.340;2023-06-22T12:42:29;21.30;99.90
40848;DHT22;26570;50.962;5.340;2023-06-22T12:45:49;21.20;99.90
40848;DHT22;26570;50.962;5.340;2023-06-22T12:48:53;21.30;99.90
40848;DHT22;26570;50.962;5.340;2023-06-22T12:51:45;21.20;99.90
40848;DHT22;26570;50.962;5.340;2023-06-22T12:54:34;21.30;99.90
40848;DHT22;26570;50.962;5.340;2023-06-22T12:57:52;21.60;99.90
40848;DHT22;26570;50.962;5.340;2023-06-22T13:05:04;21.10;99.90
40848;DHT22;26570;50.962;5.340;2023-06-22T13:07:56;21.10;99.90
40848;DHT22;26570;50.962;5.340;2023-06-22T13:11:16;21.10;99.90
40848;DHT22;26570;50.962;5.340;2023-06-22T13:17:50;20.80;99.90
40848;DHT22;26570;50.962;5.340;2023-06-22T13:20:49;20.80;99.90
40848;DHT22;26570;50.962;5.340;2023-06-22T13:24:08;20.80;99.90
40848;DHT22;26570;50.962;5.340;2023-06-22T13:27:25;20.80;99.90
40848;DHT22;26570;50.962;5.340;2023-06-22T13:30:41;20.70;99.90
40848;DHT22;26570;50.962;5.340;2023-06-22T13:38:05;20.40;99.90
40848;DHT22;26570;50.962;5.340;2023-06-22T13:41:42;20.40;99.90
40848;DHT22;26570;50.962;5.340;2023-06-22T13:47:52;20.10;99.90
40848;DHT22;26570;50.962;5.340;2023-06-22T13:51:30;20.10;99.90
40848;DHT22;26570;50.962;5.340;2023-06-22T13:55:09;19.90;99.90
40848;DHT22;26570;50.962;5.340;2023-06-22T13:58:59;20.00;99.90
40848;DHT22;26570;50.962;5.340;2023-06-22T14:02:34;20.00;99.90
40848;DHT22;26570;50.962;5.340;2023-06-22T14:05:53;19.70;99.90
40848;DHT22;26570;50.962;5.340;2023-06-22T14:09:43;19.80;99.90
40848;DHT22;26570;50.962;5.340;2023-06-22T14:16:39;19.90;99.90
40848;DHT22;26570;50.962;5.340;2023-06-22T14:23:15;19.70;99.90
40848;DHT22;26570;50.962;5.340;2023-06-22T14:34:16;19.90;99.90
40848;DHT22;26570;50.962;5.340;2023-06-22T14:46:08;19.40;99.90
40848;DHT22;26570;50.962;5.340;2023-06-22T14:49:13;19.40;99.90
40848;DHT22;26570;50.962;5.340;2023-06-22T14:56:19;19.30;99.90
40848;DHT22;26570;50.962;5.340;2023-06-22T14:59:49;19.30;99.90
40848;DHT22;26570;50.962;5.340;2023-06-22T15:03:05;19.20;99.90
40848;DHT22;26570;50.962;5.340;2023-06-22T15:06:35;19.20;99.90
40848;DHT22;26570;50.962;5.340;2023-06-22T15:10:12;19.00;99.90
40848;DHT22;26570;50.962;5.340;2023-06-22T15:13:48;19.00;99.90
40848;DHT22;26570;50.962;5.340;2023-06-22T15:24:22;19.20;99.90
40848;DHT22;26570;50.962;5.340;2023-06-22T15:31:12;19.10;99.90
40848;DHT22;26570;50.962;5.340;2023-06-22T15:35:04;19.00;99.90
40848;DHT22;26570;50.962;5.340;2023-06-22T15:42:31;19.10;99.90
40848;DHT22;26570;50.962;5.340;2023-06-22T16:01:42;19.00;99.90
40848;DHT22;26570;50.962;5.340;2023-06-22T16:05:37;19.10;99.90
40848;DHT22;26570;50.962;5.340;2023-06-22T16:12:21;19.00;99.90
40848;DHT22;26570;50.962;5.340;2023-06-22T16:23:57;19.20;99.90
40848;DHT22;26570;50.962;5.340;2023-06-22T16:27:50;19.20;99.90
40848;DHT22;26570;50.962;5.340;2023-06-22T16:30:37;19.20;99.90
40848;DHT22;26570;50.962;5.340;2023-06-22T16:33:36;19.30;99.90
40848;DHT22;26570;50.962;5.340;2023-06-22T16:37:03;19.50;99.90
40848;DHT22;26570;50.962;5.340;2023-06-22T16:40:29;19.60;99.90
40848;DHT22;26570;50.962;5.340;2023-06-22T16:43:24;19.60;99.90
40848;DHT22;26570;50.962;5.340;2023-06-22T16:46:33;19.60;99.90
40848;DHT22;26570;50.962;5.340;2023-06-22T16:49:53;19.80;99.90
40848;DHT22;26570;50.962;5.340;2023-06-22T16:53:12;19.50;99.90
40848;DHT22;26570;50.962;5.340;2023-06-22T17:11:29;19.40;99.90
40848;DHT22;26570;50.962;5.340;2023-06-22T17:18:45;19.20;99.90
40848;DHT22;26570;50.962;5.340;2023-06-22T17:26:18;19.30;99.90
40848;DHT22;26570;50.962;5.340;2023-06-22T17:29:45;19.40;99.90
40848;DHT22;26570;50.962;5.340;2023-06-22T17:33:07;19.70;99.90
40848;DHT22;26570;50.962;5.340;2023-06-22T17:40:23;19.60;99.90
40848;DHT22;26570;50.962;5.340;2023-06-22T17:43:51;19.60;99.90
40848;DHT22;26570;50.962;5.340;2023-06-22T17:51:19;19.40;99.90
40848;DHT22;26570;50.962;5.340;2023-06-22T17:54:57;19.40;99.90
40848;DHT22;26570;50.962;5.340;2023-06-22T18:02:26;19.50;99.90
40848;DHT22;26570;50.962;5.340;2023-06-22T18:12:02;19.70;99.90
40848;DHT22;26570;50.962;5.340;2023-06-22T18:15:47;19.90;99.90
40848;DHT22;26570;50.962;5.340;2023-06-22T18:19:19;19.60;99.90
40848;DHT22;26570;50.962;5.340;2023-06-22T18:22:10;19.70;99.90
40848;DHT22;26570;50.962;5.340;2023-06-22T18:25:25;19.90;99.90
40848;DHT22;26570;50.962;5.340;2023-06-22T18:32:14;20.10;99.90
40848;DHT22;26570;50.962;5.340;2023-06-22T18:35:49;20.00;99.90
40848;DHT22;26570;50.962;5.340;2023-06-22T18:38:45;20.10;99.90
40848;DHT22;26570;50.962;5.340;2023-06-22T18:42:17;19.90;99.90
40848;DHT22;26570;50.962;5.340;2023-06-22T18:45:29;20.00;99.90
40848;DHT22;26570;50.962;5.340;2023-06-22T18:49:10;20.10;99.90
40848;DHT22;26570;50.962;5.340;2023-06-22T18:52:25;20.40;99.90
40848;DHT22;26570;50.962;5.340;2023-06-22T18:55:21;20.20;99.90
40848;DHT22;26570;50.962;5.340;2023-06-22T18:58:34;20.20;99.90
40848;DHT22;26570;50.962;5.340;2023-06-22T19:15:33;20.30;99.90
40848;DHT22;26570;50.962;5.340;2023-06-22T19:23:08;20.30;99.90
40848;DHT22;26570;50.962;5.340;2023-06-22T19:25:59;20.30;99.90
40848;DHT22;26570;50.962;5.340;2023-06-22T19:29:18;20.20;99.90
40848;DHT22;26570;50.962;5.340;2023-06-22T19:32:18;20.20;99.90
40848;DHT22;26570;50.962;5.340;2023-06-22T19:35:42;20.20;99.90
40848;DHT22;26570;50.962;5.340;2023-06-22T19:38:33;20.10;99.90
40848;DHT22;26570;50.962;5.340;2023-06-22T19:41:44;20.00;99.90
40848;DHT22;26570;50.962;5.340;2023-06-22T19:45:23;20.10;99.90
40848;DHT22;26570;50.962;5.340;2023-06-22T19:48:43;19.90;99.90
40848;DHT22;26570;50.962;5.340;2023-06-22T19:55:49;19.80;99.90
40848;DHT22;26570;50.962;5.340;2023-06-22T20:07:42;19.50;99.90
40848;DHT22;26570;50.962;5.340;2023-06-22T20:11:29;19.40;99.90
40848;DHT22;26570;50.962;5.340;2023-06-22T20:18:27;19.30;99.90
40848;DHT22;26570;50.962;5.340;2023-06-22T20:21:51;19.20;99.90
40848;DHT22;26570;50.962;5.340;2023-06-22T20:25:40;19.20;99.90
40848;DHT22;26570;50.962;5.340;2023-06-22T20:29:26;19.20;99.90
40848;DHT22;26570;50.962;5.340;2023-06-22T20:32:59;19.20;99.90
40848;DHT22;26570;50.962;5.340;2023-06-22T20:36:34;19.20;99.90
40848;DHT22;26570;50.962;5.340;2023-06-22T20:40:04;19.10;99.90
40848;DHT22;26570;50.962;5.340;2023-06-22T20:42:57;19.20;99.90
40848;DHT22;26570;50.962;5.340;2023-06-22T20:46:02;19.10;99.90
40848;DHT22;26570;50.962;5.340;2023-06-22T20:49:02;19.30;99.90
40848;DHT22;26570;50.962;5.340;2023-06-22T20:52:18;19.30;99.90
40848;DHT22;26570;50.962;5.340;2023-06-22T20:55:29;19.30;99.90
40848;DHT22;26570;50.962;5.340;2023-06-22T20:58:28;19.30;99.90
40848;DHT22;26570;50.962;5.340;2023-06-22T21:01:24;19.30;99.90
40848;DHT22;26570;50.962;5.340;2023-06-22T21:04:48;19.40;99.90
40848;DHT22;26570;50.962;5.340;2023-06-22T21:08:33;19.40;99.90
40848;DHT22;26570;50.962;5.340;2023-06-22T21:11:57;19.20;99.90
40848;DHT22;26570;50.962;5.340;2023-06-22T21:15:07;19.40;99.90
40848;DHT22;26570;50.962;5.340;2023-06-22T21:17:55;19.50;99.90
40848;DHT22;26570;50.962;5.340;2023-06-22T21:21:05;19.40;99.90
40848;DHT22;26570;50.962;5.340;2023-06-22T21:24:34;19.40;99.90
40848;DHT22;26570;50.962;5.340;2023-06-22T21:27:44;19.70;99.90
40848;DHT22;26570;50.962;5.340;2023-06-22T21:30:54;19.50;99.90
40848;DHT22;26570;50.962;5.340;2023-06-22T21:46:06;19.60;99.90
40848;DHT22;26570;50.962;5.340;2023-06-22T22:03:58;19.20;99.90
40848;DHT22;26570;50.962;5.340;2023-06-22T22:07:34;19.30;99.90
40848;DHT22;26570;50.962;5.340;2023-06-22T22:15:04;19.40;99.90
40848;DHT22;26570;50.962;5.340;2023-06-22T22:18:11;19.30;99.90
40848;DHT22;26570;50.962;5.340;2023-06-22T22:28:19;19.00;99.90
40848;DHT22;26570;50.962;5.340;2023-06-22T22:35:03;18.90;99.90
40848;DHT22;26570;50.962;5.340;2023-06-22T22:38:31;19.00;99.90
40848;DHT22;26570;50.962;5.340;2023-06-22T22:42:14;19.00;99.90
40848;DHT22;26570;50.962;5.340;2023-06-22T22:45:49;19.00;99.90
40848;DHT22;26570;50.962;5.340;2023-06-22T22:53:06;19.20;99.90
40848;DHT22;26570;50.962;5.340;2023-06-22T22:56:14;19.00;99.90
